sensor_id;sensor_type;location;lat;lon;timestamp;P1;durP1;ratioP1;P2;durP2;ratioP2
2338;SDS011;1180;51.438;6.978;2023-04-05T00:01:25;8.50;;;6.07;;
2338;SDS011;1180;51.438;6.978;2023-04-05T00:03:52;9.17;;;6.93;;
2338;SDS011;1180;51.438;6.978;2023-04-05T00:06:19;13.50;;;5.63;;
2338;SDS011;1180;51.438;6.978;2023-04-05T00:08:52;11.47;;;5.90;;
2338;SDS011;1180;51.438;6.978;2023-04-05T00:11:28;8.73;;;5.80;;
2338;SDS011;1180;51.438;6.978;2023-04-05T00:13:54;7.30;;;5.57;;
2338;SDS011;1180;51.438;6.978;2023-04-05T00:16:20;7.40;;;6.43;;
2338;SDS011;1180;51.438;6.978;2023-04-05T00:18:46;7.57;;;5.30;;
2338;SDS011;1180;51.438;6.978;2023-04-05T00:21:18;9.53;;;6.80;;
2338;SDS011;1180;51.438;6.978;2023-04-05T00:23:51;10.33;;;5.90;;
2338;SDS011;1180;51.438;6.978;2023-04-05T00:26:18;8.10;;;6.00;;
2338;SDS011;1180;51.438;6.978;2023-04-05T00:28:45;7.87;;;5.83;;
2338;SDS011;1180;51.438;6.978;2023-04-05T00:31:13;11.17;;;6.57;;
2338;SDS011;1180;51.438;6.978;2023-04-05T00:33:40;7.83;;;5.57;;
2338;SDS011;1180;51.438;6.978;2023-04-05T00:38:35;7.03;;;6.33;;
2338;SDS011;1180;51.438;6.978;2023-04-05T00:41:01;9.27;;;6.40;;
2338;SDS011;1180;51.438;6.978;2023-04-05T00:43:26;10.83;;;5.60;;
2338;SDS011;1180;51.438;6.978;2023-04-05T00:45:52;8.63;;;6.00;;
2338;SDS011;1180;51.438;6.978;2023-04-05T00:48:17;9.57;;;6.27;;
2338;SDS011;1180;51.438;6.978;2023-04-05T00:50:43;14.47;;;7.27;;
2338;SDS011;1180;51.438;6.978;2023-04-05T00:53:10;11.77;;;6.77;;
2338;SDS011;1180;51.438;6.978;2023-04-05T00:55:36;6.97;;;5.37;;
2338;SDS011;1180;51.438;6.978;2023-04-05T00:58:05;7.70;;;5.60;;
2338;SDS011;1180;51.438;6.978;2023-04-05T01:00:33;8.03;;;6.30;;
2338;SDS011;1180;51.438;6.978;2023-04-05T01:03:02;11.30;;;6.05;;
2338;SDS011;1180;51.438;6.978;2023-04-05T01:10:43;9.60;;;5.70;;
2338;SDS011;1180;51.438;6.978;2023-04-05T01:13:15;9.65;;;7.15;;
2338;SDS011;1180;51.438;6.978;2023-04-05T01:15:41;10.60;;;6.67;;
2338;SDS011;1180;51.438;6.978;2023-04-05T01:18:07;8.00;;;6.30;;
2338;SDS011;1180;51.438;6.978;2023-04-05T01:20:36;8.07;;;6.40;;
2338;SDS011;1180;51.438;6.978;2023-04-05T01:23:20;7.60;;;5.83;;
2338;SDS011;1180;51.438;6.978;2023-04-05T01:31:59;12.68;;;6.70;;
2338;SDS011;1180;51.438;6.978;2023-04-05T01:37:14;11.52;;;7.22;;
2338;SDS011;1180;51.438;6.978;2023-04-05T01:39:42;10.43;;;5.95;;
2338;SDS011;1180;51.438;6.978;2023-04-05T01:42:11;8.55;;;6.00;;
2338;SDS011;1180;51.438;6.978;2023-04-05T01:44:37;6.13;;;5.47;;
2338;SDS011;1180;51.438;6.978;2023-04-05T01:47:02;11.97;;;6.77;;
2338;SDS011;1180;51.438;6.978;2023-04-05T01:49:28;9.83;;;6.20;;
2338;SDS011;1180;51.438;6.978;2023-04-05T01:51:53;7.27;;;5.70;;
2338;SDS011;1180;51.438;6.978;2023-04-05T01:54:18;8.20;;;6.20;;
2338;SDS011;1180;51.438;6.978;2023-04-05T01:56:44;9.80;;;7.10;;
2338;SDS011;1180;51.438;6.978;2023-04-05T01:59:10;10.60;;;6.40;;
2338;SDS011;1180;51.438;6.978;2023-04-05T02:01:35;6.93;;;6.10;;
2338;SDS011;1180;51.438;6.978;2023-04-05T02:04:00;6.57;;;5.60;;
2338;SDS011;1180;51.438;6.978;2023-04-05T02:06:27;8.33;;;6.37;;
2338;SDS011;1180;51.438;6.978;2023-04-05T02:08:52;14.10;;;6.50;;
2338;SDS011;1180;51.438;6.978;2023-04-05T02:11:18;11.27;;;6.20;;
2338;SDS011;1180;51.438;6.978;2023-04-05T02:13:43;12.10;;;5.90;;
2338;SDS011;1180;51.438;6.978;2023-04-05T02:16:08;7.07;;;6.37;;
2338;SDS011;1180;51.438;6.978;2023-04-05T02:18:35;11.57;;;6.73;;
2338;SDS011;1180;51.438;6.978;2023-04-05T02:21:06;10.73;;;6.32;;
2338;SDS011;1180;51.438;6.978;2023-04-05T02:23:35;12.40;;;6.35;;
2338;SDS011;1180;51.438;6.978;2023-04-05T02:26:01;9.50;;;5.80;;
2338;SDS011;1180;51.438;6.978;2023-04-05T02:28:26;14.23;;;7.00;;
2338;SDS011;1180;51.438;6.978;2023-04-05T02:30:52;11.30;;;7.10;;
2338;SDS011;1180;51.438;6.978;2023-04-05T02:33:18;9.90;;;8.23;;
2338;SDS011;1180;51.438;6.978;2023-04-05T02:35:47;9.88;;;7.00;;
2338;SDS011;1180;51.438;6.978;2023-04-05T02:38:13;12.57;;;6.50;;
2338;SDS011;1180;51.438;6.978;2023-04-05T02:40:39;11.73;;;7.13;;
2338;SDS011;1180;51.438;6.978;2023-04-05T02:43:05;8.00;;;6.47;;
2338;SDS011;1180;51.438;6.978;2023-04-05T02:45:31;13.20;;;7.53;;
2338;SDS011;1180;51.438;6.978;2023-04-05T02:47:56;8.80;;;6.30;;
2338;SDS011;1180;51.438;6.978;2023-04-05T02:50:22;10.90;;;6.63;;
2338;SDS011;1180;51.438;6.978;2023-04-05T02:52:47;9.53;;;6.70;;
2338;SDS011;1180;51.438;6.978;2023-04-05T02:55:16;9.18;;;6.88;;
2338;SDS011;1180;51.438;6.978;2023-04-05T02:57:42;10.52;;;7.07;;
2338;SDS011;1180;51.438;6.978;2023-04-05T03:00:08;12.90;;;8.77;;
2338;SDS011;1180;51.438;6.978;2023-04-05T03:02:35;9.45;;;6.50;;
2338;SDS011;1180;51.438;6.978;2023-04-05T03:05:02;7.90;;;6.63;;
2338;SDS011;1180;51.438;6.978;2023-04-05T03:07:28;12.70;;;8.02;;
2338;SDS011;1180;51.438;6.978;2023-04-05T03:09:54;10.70;;;7.28;;
2338;SDS011;1180;51.438;6.978;2023-04-05T03:12:21;12.68;;;7.25;;
2338;SDS011;1180;51.438;6.978;2023-04-05T03:14:47;12.88;;;6.85;;
2338;SDS011;1180;51.438;6.978;2023-04-05T03:17:12;8.53;;;6.00;;
2338;SDS011;1180;51.438;6.978;2023-04-05T03:19:38;11.63;;;7.40;;
2338;SDS011;1180;51.438;6.978;2023-04-05T03:22:04;11.73;;;6.93;;
2338;SDS011;1180;51.438;6.978;2023-04-05T03:24:30;10.30;;;7.63;;
2338;SDS011;1180;51.438;6.978;2023-04-05T03:26:55;11.97;;;7.93;;
2338;SDS011;1180;51.438;6.978;2023-04-05T03:29:24;12.48;;;7.15;;
2338;SDS011;1180;51.438;6.978;2023-04-05T03:31:50;10.75;;;7.07;;
2338;SDS011;1180;51.438;6.978;2023-04-05T03:34:15;14.20;;;8.23;;
2338;SDS011;1180;51.438;6.978;2023-04-05T03:36:40;11.43;;;7.83;;
2338;SDS011;1180;51.438;6.978;2023-04-05T03:39:09;14.60;;;8.20;;
2338;SDS011;1180;51.438;6.978;2023-04-05T03:41:36;17.27;;;8.07;;
2338;SDS011;1180;51.438;6.978;2023-04-05T03:44:02;9.57;;;6.75;;
2338;SDS011;1180;51.438;6.978;2023-04-05T03:46:27;8.20;;;7.07;;
2338;SDS011;1180;51.438;6.978;2023-04-05T03:48:53;9.60;;;6.90;;
2338;SDS011;1180;51.438;6.978;2023-04-05T03:51:18;11.73;;;7.40;;
2338;SDS011;1180;51.438;6.978;2023-04-05T03:53:44;14.90;;;8.90;;
2338;SDS011;1180;51.438;6.978;2023-04-05T03:56:10;9.35;;;6.90;;
2338;SDS011;1180;51.438;6.978;2023-04-05T03:58:35;12.43;;;8.27;;
2338;SDS011;1180;51.438;6.978;2023-04-05T04:01:01;9.67;;;8.10;;
2338;SDS011;1180;51.438;6.978;2023-04-05T04:03:27;11.00;;;7.40;;
2338;SDS011;1180;51.438;6.978;2023-04-05T04:05:53;16.50;;;8.20;;
2338;SDS011;1180;51.438;6.978;2023-04-05T04:08:19;15.82;;;8.07;;
2338;SDS011;1180;51.438;6.978;2023-04-05T04:10:45;12.13;;;7.90;;
2338;SDS011;1180;51.438;6.978;2023-04-05T04:13:10;11.90;;;7.30;;
2338;SDS011;1180;51.438;6.978;2023-04-05T04:15:36;12.40;;;6.70;;
2338;SDS011;1180;51.438;6.978;2023-04-05T04:18:01;10.43;;;7.73;;
2338;SDS011;1180;51.438;6.978;2023-04-05T04:20:26;14.40;;;7.20;;
2338;SDS011;1180;51.438;6.978;2023-04-05T04:22:52;10.53;;;7.80;;
2338;SDS011;1180;51.438;6.978;2023-04-05T04:25:18;12.93;;;7.20;;
2338;SDS011;1180;51.438;6.978;2023-04-05T04:27:44;14.50;;;8.05;;
2338;SDS011;1180;51.438;6.978;2023-04-05T04:30:13;7.50;;;6.75;;
2338;SDS011;1180;51.438;6.978;2023-04-05T04:32:40;11.65;;;7.05;;
2338;SDS011;1180;51.438;6.978;2023-04-05T04:35:15;12.80;;;7.00;;
2338;SDS011;1180;51.438;6.978;2023-04-05T04:37:52;11.45;;;7.35;;
2338;SDS011;1180;51.438;6.978;2023-04-05T04:40:22;10.40;;;6.70;;
2338;SDS011;1180;51.438;6.978;2023-04-05T04:42:49;7.82;;;7.10;;
2338;SDS011;1180;51.438;6.978;2023-04-05T04:45:16;12.30;;;7.63;;
2338;SDS011;1180;51.438;6.978;2023-04-05T04:47:43;10.82;;;6.45;;
2338;SDS011;1180;51.438;6.978;2023-04-05T04:50:11;12.13;;;8.10;;
2338;SDS011;1180;51.438;6.978;2023-04-05T04:52:37;11.80;;;7.60;;
2338;SDS011;1180;51.438;6.978;2023-04-05T04:55:03;10.52;;;7.75;;
2338;SDS011;1180;51.438;6.978;2023-04-05T04:57:29;14.07;;;7.20;;
2338;SDS011;1180;51.438;6.978;2023-04-05T04:59:55;9.00;;;6.40;;
2338;SDS011;1180;51.438;6.978;2023-04-05T05:02:23;13.00;;;7.40;;
2338;SDS011;1180;51.438;6.978;2023-04-05T05:04:49;15.27;;;7.78;;
2338;SDS011;1180;51.438;6.978;2023-04-05T05:07:15;11.90;;;6.83;;
2338;SDS011;1180;51.438;6.978;2023-04-05T05:09:41;10.88;;;7.95;;
2338;SDS011;1180;51.438;6.978;2023-04-05T05:12:07;10.93;;;7.60;;
2338;SDS011;1180;51.438;6.978;2023-04-05T05:14:32;9.63;;;7.27;;
2338;SDS011;1180;51.438;6.978;2023-04-05T05:16:57;9.83;;;6.87;;
2338;SDS011;1180;51.438;6.978;2023-04-05T05:19:24;12.63;;;8.17;;
2338;SDS011;1180;51.438;6.978;2023-04-05T05:21:49;10.50;;;7.55;;
2338;SDS011;1180;51.438;6.978;2023-04-05T05:24:17;11.07;;;7.85;;
2338;SDS011;1180;51.438;6.978;2023-04-05T05:26:42;8.60;;;7.00;;
2338;SDS011;1180;51.438;6.978;2023-04-05T05:29:08;13.00;;;8.20;;
2338;SDS011;1180;51.438;6.978;2023-04-05T05:31:34;12.98;;;7.03;;
2338;SDS011;1180;51.438;6.978;2023-04-05T05:34:00;13.20;;;8.82;;
2338;SDS011;1180;51.438;6.978;2023-04-05T05:36:26;10.13;;;7.82;;
2338;SDS011;1180;51.438;6.978;2023-04-05T05:38:53;13.32;;;7.35;;
2338;SDS011;1180;51.438;6.978;2023-04-05T05:41:19;10.40;;;7.90;;
2338;SDS011;1180;51.438;6.978;2023-04-05T05:43:47;11.73;;;8.23;;
2338;SDS011;1180;51.438;6.978;2023-04-05T05:46:12;10.45;;;7.20;;
2338;SDS011;1180;51.438;6.978;2023-04-05T05:48:39;9.77;;;7.47;;
2338;SDS011;1180;51.438;6.978;2023-04-05T05:51:06;12.95;;;8.07;;
2338;SDS011;1180;51.438;6.978;2023-04-05T05:53:37;11.48;;;9.02;;
2338;SDS011;1180;51.438;6.978;2023-04-05T05:56:03;16.50;;;9.77;;
2338;SDS011;1180;51.438;6.978;2023-04-05T05:58:28;10.73;;;7.47;;
2338;SDS011;1180;51.438;6.978;2023-04-05T06:00:54;10.63;;;7.70;;
2338;SDS011;1180;51.438;6.978;2023-04-05T06:03:20;12.13;;;8.55;;
2338;SDS011;1180;51.438;6.978;2023-04-05T06:05:52;9.13;;;7.57;;
2338;SDS011;1180;51.438;6.978;2023-04-05T06:08:19;10.15;;;7.75;;
2338;SDS011;1180;51.438;6.978;2023-04-05T06:10:46;14.40;;;8.80;;
2338;SDS011;1180;51.438;6.978;2023-04-05T06:13:14;12.27;;;7.65;;
2338;SDS011;1180;51.438;6.978;2023-04-05T06:15:43;11.48;;;6.47;;
2338;SDS011;1180;51.438;6.978;2023-04-05T06:18:09;9.75;;;7.05;;
2338;SDS011;1180;51.438;6.978;2023-04-05T06:20:35;10.90;;;7.60;;
2338;SDS011;1180;51.438;6.978;2023-04-05T06:23:05;10.13;;;7.43;;
2338;SDS011;1180;51.438;6.978;2023-04-05T06:25:31;9.15;;;7.53;;
2338;SDS011;1180;51.438;6.978;2023-04-05T06:27:57;10.43;;;7.03;;
2338;SDS011;1180;51.438;6.978;2023-04-05T06:30:23;9.80;;;6.80;;
2338;SDS011;1180;51.438;6.978;2023-04-05T06:32:48;11.00;;;6.80;;
2338;SDS011;1180;51.438;6.978;2023-04-05T06:35:18;10.82;;;7.70;;
2338;SDS011;1180;51.438;6.978;2023-04-05T06:37:45;6.82;;;5.80;;
2338;SDS011;1180;51.438;6.978;2023-04-05T06:40:11;7.17;;;6.43;;
2338;SDS011;1180;51.438;6.978;2023-04-05T06:42:37;9.23;;;5.87;;
2338;SDS011;1180;51.438;6.978;2023-04-05T06:45:03;12.43;;;6.60;;
2338;SDS011;1180;51.438;6.978;2023-04-05T06:47:32;9.52;;;6.20;;
2338;SDS011;1180;51.438;6.978;2023-04-05T06:50:03;5.85;;;5.25;;
2338;SDS011;1180;51.438;6.978;2023-04-05T06:52:29;6.90;;;5.90;;
2338;SDS011;1180;51.438;6.978;2023-04-05T06:54:55;7.90;;;5.57;;
2338;SDS011;1180;51.438;6.978;2023-04-05T06:57:20;10.30;;;5.47;;
2338;SDS011;1180;51.438;6.978;2023-04-05T06:59:46;8.23;;;5.50;;
2338;SDS011;1180;51.438;6.978;2023-04-05T07:02:11;6.53;;;5.50;;
2338;SDS011;1180;51.438;6.978;2023-04-05T07:04:37;7.20;;;4.63;;
2338;SDS011;1180;51.438;6.978;2023-04-05T07:07:03;7.60;;;5.87;;
2338;SDS011;1180;51.438;6.978;2023-04-05T07:09:30;7.03;;;5.47;;
2338;SDS011;1180;51.438;6.978;2023-04-05T07:11:57;6.97;;;4.97;;
2338;SDS011;1180;51.438;6.978;2023-04-05T07:14:28;4.57;;;4.05;;
2338;SDS011;1180;51.438;6.978;2023-04-05T07:16:54;6.47;;;4.47;;
2338;SDS011;1180;51.438;6.978;2023-04-05T07:19:20;5.03;;;4.63;;
2338;SDS011;1180;51.438;6.978;2023-04-05T07:21:45;7.40;;;5.13;;
2338;SDS011;1180;51.438;6.978;2023-04-05T07:24:11;5.17;;;3.93;;
2338;SDS011;1180;51.438;6.978;2023-04-05T07:26:36;7.87;;;4.40;;
2338;SDS011;1180;51.438;6.978;2023-04-05T07:29:02;8.00;;;4.60;;
2338;SDS011;1180;51.438;6.978;2023-04-05T07:31:28;5.75;;;4.60;;
2338;SDS011;1180;51.438;6.978;2023-04-05T07:33:55;5.80;;;4.57;;
2338;SDS011;1180;51.438;6.978;2023-04-05T07:36:22;5.00;;;4.27;;
2338;SDS011;1180;51.438;6.978;2023-04-05T07:38:47;5.93;;;5.07;;
2338;SDS011;1180;51.438;6.978;2023-04-05T07:41:12;6.00;;;5.47;;
2338;SDS011;1180;51.438;6.978;2023-04-05T07:43:40;5.80;;;5.13;;
2338;SDS011;1180;51.438;6.978;2023-04-05T07:46:06;6.73;;;4.83;;
2338;SDS011;1180;51.438;6.978;2023-04-05T07:48:31;5.13;;;4.60;;
2338;SDS011;1180;51.438;6.978;2023-04-05T07:51:01;10.90;;;5.10;;
2338;SDS011;1180;51.438;6.978;2023-04-05T07:53:27;7.00;;;5.90;;
2338;SDS011;1180;51.438;6.978;2023-04-05T07:55:53;6.83;;;5.50;;
2338;SDS011;1180;51.438;6.978;2023-04-05T07:58:18;5.97;;;4.40;;
2338;SDS011;1180;51.438;6.978;2023-04-05T08:00:43;8.00;;;3.67;;
2338;SDS011;1180;51.438;6.978;2023-04-05T08:03:09;6.20;;;4.40;;
2338;SDS011;1180;51.438;6.978;2023-04-05T08:05:35;7.60;;;4.50;;
2338;SDS011;1180;51.438;6.978;2023-04-05T08:08:00;6.80;;;5.00;;
2338;SDS011;1180;51.438;6.978;2023-04-05T08:10:25;6.07;;;4.60;;
2338;SDS011;1180;51.438;6.978;2023-04-05T08:12:51;5.90;;;5.30;;
2338;SDS011;1180;51.438;6.978;2023-04-05T08:15:17;6.97;;;5.60;;
2338;SDS011;1180;51.438;6.978;2023-04-05T08:17:42;9.23;;;5.50;;
2338;SDS011;1180;51.438;6.978;2023-04-05T08:20:08;6.80;;;4.87;;
2338;SDS011;1180;51.438;6.978;2023-04-05T08:22:33;9.60;;;6.37;;
2338;SDS011;1180;51.438;6.978;2023-04-05T08:24:58;6.43;;;4.90;;
2338;SDS011;1180;51.438;6.978;2023-04-05T08:27:24;8.73;;;5.57;;
2338;SDS011;1180;51.438;6.978;2023-04-05T08:29:49;9.37;;;5.67;;
2338;SDS011;1180;51.438;6.978;2023-04-05T08:32:15;7.77;;;5.63;;
2338;SDS011;1180;51.438;6.978;2023-04-05T08:34:40;10.53;;;5.73;;
2338;SDS011;1180;51.438;6.978;2023-04-05T08:37:05;9.23;;;5.03;;
2338;SDS011;1180;51.438;6.978;2023-04-05T08:39:33;11.00;;;6.90;;
2338;SDS011;1180;51.438;6.978;2023-04-05T08:42:03;9.43;;;6.43;;
2338;SDS011;1180;51.438;6.978;2023-04-05T08:44:35;8.93;;;5.83;;
2338;SDS011;1180;51.438;6.978;2023-04-05T08:47:01;7.83;;;5.93;;
2338;SDS011;1180;51.438;6.978;2023-04-05T08:49:27;6.53;;;5.10;;
2338;SDS011;1180;51.438;6.978;2023-04-05T08:51:52;7.50;;;5.47;;
2338;SDS011;1180;51.438;6.978;2023-04-05T08:54:19;8.37;;;5.80;;
2338;SDS011;1180;51.438;6.978;2023-04-05T08:56:45;7.60;;;5.00;;
2338;SDS011;1180;51.438;6.978;2023-04-05T08:59:14;7.53;;;5.57;;
2338;SDS011;1180;51.438;6.978;2023-04-05T09:01:41;9.50;;;6.27;;
2338;SDS011;1180;51.438;6.978;2023-04-05T09:04:09;6.70;;;5.00;;
2338;SDS011;1180;51.438;6.978;2023-04-05T09:06:39;8.50;;;5.57;;
2338;SDS011;1180;51.438;6.978;2023-04-05T09:09:05;7.77;;;5.70;;
2338;SDS011;1180;51.438;6.978;2023-04-05T09:11:32;10.70;;;5.20;;
2338;SDS011;1180;51.438;6.978;2023-04-05T09:13:58;6.70;;;5.70;;
2338;SDS011;1180;51.438;6.978;2023-04-05T09:16:24;10.03;;;5.90;;
2338;SDS011;1180;51.438;6.978;2023-04-05T09:18:51;6.50;;;5.60;;
2338;SDS011;1180;51.438;6.978;2023-04-05T09:21:16;9.37;;;5.23;;
2338;SDS011;1180;51.438;6.978;2023-04-05T09:23:49;7.33;;;5.60;;
2338;SDS011;1180;51.438;6.978;2023-04-05T09:26:20;8.27;;;5.80;;
2338;SDS011;1180;51.438;6.978;2023-04-05T09:28:50;9.20;;;5.97;;
2338;SDS011;1180;51.438;6.978;2023-04-05T09:34:03;6.37;;;5.00;;
2338;SDS011;1180;51.438;6.978;2023-04-05T09:36:32;6.73;;;5.47;;
2338;SDS011;1180;51.438;6.978;2023-04-05T09:39:07;10.23;;;6.53;;
2338;SDS011;1180;51.438;6.978;2023-04-05T09:41:34;11.23;;;6.03;;
2338;SDS011;1180;51.438;6.978;2023-04-05T09:44:01;9.03;;;6.03;;
2338;SDS011;1180;51.438;6.978;2023-04-05T09:46:33;7.10;;;5.93;;
2338;SDS011;1180;51.438;6.978;2023-04-05T09:49:01;7.27;;;6.57;;
2338;SDS011;1180;51.438;6.978;2023-04-05T09:51:35;7.50;;;6.20;;
2338;SDS011;1180;51.438;6.978;2023-04-05T09:56:37;6.40;;;5.50;;
2338;SDS011;1180;51.438;6.978;2023-04-05T10:01:37;8.40;;;6.13;;
2338;SDS011;1180;51.438;6.978;2023-04-05T10:04:03;5.90;;;5.30;;
2338;SDS011;1180;51.438;6.978;2023-04-05T10:06:36;6.80;;;5.37;;
2338;SDS011;1180;51.438;6.978;2023-04-05T10:09:03;5.87;;;5.10;;
2338;SDS011;1180;51.438;6.978;2023-04-05T10:11:30;8.00;;;5.20;;
2338;SDS011;1180;51.438;6.978;2023-04-05T10:14:01;7.73;;;5.50;;
2338;SDS011;1180;51.438;6.978;2023-04-05T10:16:36;6.27;;;5.67;;
2338;SDS011;1180;51.438;6.978;2023-04-05T10:19:08;11.63;;;6.40;;
2338;SDS011;1180;51.438;6.978;2023-04-05T10:21:45;9.17;;;7.00;;
2338;SDS011;1180;51.438;6.978;2023-04-05T10:24:22;6.87;;;6.17;;
2338;SDS011;1180;51.438;6.978;2023-04-05T10:27:02;10.50;;;6.07;;
2338;SDS011;1180;51.438;6.978;2023-04-05T10:29:42;9.03;;;5.80;;
2338;SDS011;1180;51.438;6.978;2023-04-05T10:32:22;6.20;;;5.60;;
2338;SDS011;1180;51.438;6.978;2023-04-05T10:35:17;8.73;;;5.73;;
2338;SDS011;1180;51.438;6.978;2023-04-05T10:38:08;6.93;;;5.57;;
2338;SDS011;1180;51.438;6.978;2023-04-05T10:40:45;6.40;;;5.50;;
2338;SDS011;1180;51.438;6.978;2023-04-05T10:43:14;7.60;;;6.10;;
2338;SDS011;1180;51.438;6.978;2023-04-05T10:45:43;9.80;;;4.80;;
2338;SDS011;1180;51.438;6.978;2023-04-05T10:48:19;6.30;;;5.70;;
2338;SDS011;1180;51.438;6.978;2023-04-05T10:51:15;7.83;;;5.73;;
2338;SDS011;1180;51.438;6.978;2023-04-05T10:53:43;6.30;;;5.30;;
2338;SDS011;1180;51.438;6.978;2023-04-05T10:56:10;10.03;;;5.80;;
2338;SDS011;1180;51.438;6.978;2023-04-05T10:58:36;6.63;;;5.33;;
2338;SDS011;1180;51.438;6.978;2023-04-05T11:01:04;6.37;;;4.93;;
2338;SDS011;1180;51.438;6.978;2023-04-05T11:09:00;8.97;;;5.30;;
2338;SDS011;1180;51.438;6.978;2023-04-05T11:11:53;10.90;;;6.80;;
2338;SDS011;1180;51.438;6.978;2023-04-05T11:14:21;6.47;;;5.33;;
2338;SDS011;1180;51.438;6.978;2023-04-05T11:16:53;7.47;;;6.70;;
2338;SDS011;1180;51.438;6.978;2023-04-05T11:22:07;9.83;;;6.40;;
2338;SDS011;1180;51.438;6.978;2023-04-05T11:24:50;6.27;;;5.20;;
2338;SDS011;1180;51.438;6.978;2023-04-05T11:27:20;9.07;;;6.80;;
2338;SDS011;1180;51.438;6.978;2023-04-05T11:29:53;6.73;;;5.57;;
2338;SDS011;1180;51.438;6.978;2023-04-05T11:32:19;7.20;;;6.43;;
2338;SDS011;1180;51.438;6.978;2023-04-05T11:34:58;6.30;;;5.70;;
2338;SDS011;1180;51.438;6.978;2023-04-05T11:42:58;6.90;;;6.20;;
2338;SDS011;1180;51.438;6.978;2023-04-05T11:45:35;6.93;;;6.23;;
2338;SDS011;1180;51.438;6.978;2023-04-05T11:48:05;6.30;;;5.63;;
2338;SDS011;1180;51.438;6.978;2023-04-05T11:50:32;9.83;;;6.47;;
2338;SDS011;1180;51.438;6.978;2023-04-05T11:53:10;10.43;;;6.37;;
2338;SDS011;1180;51.438;6.978;2023-04-05T11:55:45;7.57;;;6.07;;
2338;SDS011;1180;51.438;6.978;2023-04-05T11:58:20;5.90;;;4.97;;
2338;SDS011;1180;51.438;6.978;2023-04-05T12:00:56;6.40;;;5.27;;
2338;SDS011;1180;51.438;6.978;2023-04-05T12:03:26;7.43;;;5.07;;
2338;SDS011;1180;51.438;6.978;2023-04-05T12:05:55;7.47;;;5.33;;
2338;SDS011;1180;51.438;6.978;2023-04-05T12:08:23;6.00;;;5.50;;
2338;SDS011;1180;51.438;6.978;2023-04-05T12:11:14;12.83;;;7.10;;
2338;SDS011;1180;51.438;6.978;2023-04-05T12:14:00;6.90;;;5.40;;
2338;SDS011;1180;51.438;6.978;2023-04-05T12:16:27;9.33;;;5.70;;
2338;SDS011;1180;51.438;6.978;2023-04-05T12:18:53;7.77;;;5.73;;
2338;SDS011;1180;51.438;6.978;2023-04-05T12:21:26;7.53;;;5.40;;
2338;SDS011;1180;51.438;6.978;2023-04-05T12:23:53;6.43;;;5.83;;
2338;SDS011;1180;51.438;6.978;2023-04-05T12:26:20;6.30;;;5.43;;
2338;SDS011;1180;51.438;6.978;2023-04-05T12:31:15;6.30;;;5.67;;
2338;SDS011;1180;51.438;6.978;2023-04-05T12:33:41;6.57;;;5.47;;
2338;SDS011;1180;51.438;6.978;2023-04-05T12:36:08;8.80;;;5.33;;
2338;SDS011;1180;51.438;6.978;2023-04-05T12:38:35;5.90;;;5.30;;
2338;SDS011;1180;51.438;6.978;2023-04-05T12:41:02;6.10;;;5.50;;
2338;SDS011;1180;51.438;6.978;2023-04-05T12:43:38;6.60;;;5.97;;
2338;SDS011;1180;51.438;6.978;2023-04-05T12:46:09;7.90;;;5.83;;
2338;SDS011;1180;51.438;6.978;2023-04-05T12:48:41;8.30;;;6.53;;
2338;SDS011;1180;51.438;6.978;2023-04-05T12:51:13;6.93;;;5.80;;
2338;SDS011;1180;51.438;6.978;2023-04-05T12:53:44;8.13;;;5.40;;
2338;SDS011;1180;51.438;6.978;2023-04-05T12:56:14;6.23;;;5.33;;
2338;SDS011;1180;51.438;6.978;2023-04-05T12:58:40;5.33;;;4.77;;
2338;SDS011;1180;51.438;6.978;2023-04-05T13:01:06;5.73;;;5.20;;
2338;SDS011;1180;51.438;6.978;2023-04-05T13:03:32;6.00;;;5.30;;
2338;SDS011;1180;51.438;6.978;2023-04-05T13:05:58;6.10;;;5.27;;
2338;SDS011;1180;51.438;6.978;2023-04-05T13:08:24;5.07;;;4.57;;
2338;SDS011;1180;51.438;6.978;2023-04-05T13:10:51;6.40;;;5.77;;
2338;SDS011;1180;51.438;6.978;2023-04-05T13:13:16;6.30;;;5.33;;
2338;SDS011;1180;51.438;6.978;2023-04-05T13:15:45;6.90;;;5.83;;
2338;SDS011;1180;51.438;6.978;2023-04-05T13:18:10;6.63;;;5.47;;
2338;SDS011;1180;51.438;6.978;2023-04-05T13:20:39;3.30;;;3.00;;
2338;SDS011;1180;51.438;6.978;2023-04-05T13:23:08;6.63;;;3.17;;
2338;SDS011;1180;51.438;6.978;2023-04-05T13:25:36;9.80;;;5.53;;
2338;SDS011;1180;51.438;6.978;2023-04-05T13:28:02;7.90;;;5.93;;
2338;SDS011;1180;51.438;6.978;2023-04-05T13:30:28;6.37;;;5.30;;
2338;SDS011;1180;51.438;6.978;2023-04-05T13:32:54;4.33;;;3.87;;
2338;SDS011;1180;51.438;6.978;2023-04-05T13:35:20;4.90;;;4.50;;
2338;SDS011;1180;51.438;6.978;2023-04-05T13:37:45;8.17;;;5.90;;
2338;SDS011;1180;51.438;6.978;2023-04-05T13:40:11;7.00;;;5.67;;
2338;SDS011;1180;51.438;6.978;2023-04-05T13:42:36;9.07;;;6.90;;
2338;SDS011;1180;51.438;6.978;2023-04-05T13:45:03;7.70;;;6.67;;
2338;SDS011;1180;51.438;6.978;2023-04-05T13:47:29;9.20;;;6.10;;
2338;SDS011;1180;51.438;6.978;2023-04-05T13:49:54;6.70;;;5.57;;
2338;SDS011;1180;51.438;6.978;2023-04-05T13:52:20;7.53;;;5.50;;
2338;SDS011;1180;51.438;6.978;2023-04-05T13:54:45;6.00;;;5.17;;
2338;SDS011;1180;51.438;6.978;2023-04-05T13:57:11;8.50;;;6.07;;
2338;SDS011;1180;51.438;6.978;2023-04-05T13:59:38;6.93;;;5.60;;
2338;SDS011;1180;51.438;6.978;2023-04-05T14:02:04;6.93;;;5.50;;
2338;SDS011;1180;51.438;6.978;2023-04-05T14:04:30;6.80;;;5.77;;
2338;SDS011;1180;51.438;6.978;2023-04-05T14:06:55;7.37;;;5.60;;
2338;SDS011;1180;51.438;6.978;2023-04-05T14:09:21;6.10;;;5.50;;
2338;SDS011;1180;51.438;6.978;2023-04-05T14:11:47;8.00;;;6.47;;
2338;SDS011;1180;51.438;6.978;2023-04-05T14:14:13;7.80;;;6.10;;
2338;SDS011;1180;51.438;6.978;2023-04-05T14:16:38;6.77;;;6.17;;
2338;SDS011;1180;51.438;6.978;2023-04-05T14:19:04;7.70;;;5.83;;
2338;SDS011;1180;51.438;6.978;2023-04-05T14:21:30;7.70;;;6.60;;
2338;SDS011;1180;51.438;6.978;2023-04-05T14:23:56;10.67;;;6.17;;
2338;SDS011;1180;51.438;6.978;2023-04-05T14:26:23;8.83;;;6.07;;
2338;SDS011;1180;51.438;6.978;2023-04-05T14:28:50;8.83;;;6.50;;
2338;SDS011;1180;51.438;6.978;2023-04-05T14:31:17;8.77;;;4.73;;
2338;SDS011;1180;51.438;6.978;2023-04-05T14:33:42;7.20;;;6.20;;
2338;SDS011;1180;51.438;6.978;2023-04-05T14:36:08;7.13;;;5.77;;
2338;SDS011;1180;51.438;6.978;2023-04-05T14:38:34;6.90;;;5.77;;
2338;SDS011;1180;51.438;6.978;2023-04-05T14:40:59;5.30;;;4.83;;
2338;SDS011;1180;51.438;6.978;2023-04-05T14:43:25;7.93;;;7.13;;
2338;SDS011;1180;51.438;6.978;2023-04-05T14:45:51;7.50;;;5.80;;
2338;SDS011;1180;51.438;6.978;2023-04-05T14:48:17;7.47;;;6.70;;
2338;SDS011;1180;51.438;6.978;2023-04-05T14:50:43;8.07;;;6.30;;
2338;SDS011;1180;51.438;6.978;2023-04-05T14:53:09;5.43;;;4.93;;
2338;SDS011;1180;51.438;6.978;2023-04-05T14:55:35;7.87;;;6.20;;
2338;SDS011;1180;51.438;6.978;2023-04-05T14:58:01;6.27;;;5.27;;
2338;SDS011;1180;51.438;6.978;2023-04-05T15:00:27;9.97;;;5.40;;
2338;SDS011;1180;51.438;6.978;2023-04-05T15:02:53;7.00;;;4.80;;
2338;SDS011;1180;51.438;6.978;2023-04-05T15:05:19;6.53;;;5.50;;
2338;SDS011;1180;51.438;6.978;2023-04-05T15:07:44;5.30;;;4.60;;
2338;SDS011;1180;51.438;6.978;2023-04-05T15:10:10;6.57;;;5.50;;
2338;SDS011;1180;51.438;6.978;2023-04-05T15:12:35;5.40;;;4.90;;
2338;SDS011;1180;51.438;6.978;2023-04-05T15:15:01;5.53;;;4.97;;
2338;SDS011;1180;51.438;6.978;2023-04-05T15:17:27;5.93;;;5.03;;
2338;SDS011;1180;51.438;6.978;2023-04-05T15:19:54;7.53;;;6.83;;
2338;SDS011;1180;51.438;6.978;2023-04-05T15:22:19;8.60;;;6.20;;
2338;SDS011;1180;51.438;6.978;2023-04-05T15:24:47;6.90;;;5.77;;
2338;SDS011;1180;51.438;6.978;2023-04-05T15:27:15;7.57;;;5.70;;
2338;SDS011;1180;51.438;6.978;2023-04-05T15:29:41;9.40;;;5.53;;
2338;SDS011;1180;51.438;6.978;2023-04-05T15:32:07;5.23;;;4.63;;
2338;SDS011;1180;51.438;6.978;2023-04-05T15:34:32;6.50;;;4.73;;
2338;SDS011;1180;51.438;6.978;2023-04-05T15:36:58;2.50;;;2.30;;
2338;SDS011;1180;51.438;6.978;2023-04-05T15:39:24;7.30;;;3.90;;
2338;SDS011;1180;51.438;6.978;2023-04-05T15:41:50;6.50;;;4.77;;
2338;SDS011;1180;51.438;6.978;2023-04-05T15:44:15;7.30;;;5.30;;
2338;SDS011;1180;51.438;6.978;2023-04-05T15:46:41;6.20;;;5.50;;
2338;SDS011;1180;51.438;6.978;2023-04-05T15:49:07;10.57;;;4.97;;
2338;SDS011;1180;51.438;6.978;2023-04-05T15:51:36;5.50;;;4.80;;
2338;SDS011;1180;51.438;6.978;2023-04-05T15:54:02;11.90;;;5.93;;